Time;durP1;ratioP1;P1;durP2;ratioP2;P2;SDS_P1;SDS_P2;PMS_P1;PMS_P2;Temp;Humidity;BMP_temperature;BMP_pressure;BME280_temperature;BME280_humidity;BME280_pressure;Samples;Min_cycle;Max_cycle;Signal;HPM_P1;HPM_P2
2023/07/20 00:01:58;;;;;;;10.60;4.50;;;20.60;99.90;;;;;;4994728;28;20034;-80
2023/07/20 00:04:24;;;;;;;9.73;4.00;;;20.70;99.90;;;;;;4994969;28;20023;-80
2023/07/20 00:06:50;;;;;;;9.20;3.95;;;20.70;99.90;;;;;;4994582;28;20076;-80
2023/07/20 00:09:16;;;;;;;11.23;4.47;;;20.80;99.90;;;;;;4994580;28;20026;-80
2023/07/20 00:11:50;;;;;;;9.63;4.05;;;20.70;99.90;;;;;;4994686;28;20081;-79
2023/07/20 00:14:17;;;;;;;11.90;5.00;;;20.80;99.90;;;;;;4994296;28;20109;-80
2023/07/20 00:16:43;;;;;;;10.75;4.20;;;20.80;99.90;;;;;;4994623;28;20507;-81
2023/07/20 00:19:10;;;;;;;10.68;3.47;;;20.70;99.90;;;;;;4993312;28;20113;-80
2023/07/20 00:21:36;;;;;;;17.83;4.82;;;20.70;99.90;;;;;;4994408;28;20022;-79
2023/07/20 00:24:02;;;;;;;12.10;4.55;;;20.50;99.90;;;;;;4993852;28;20054;-80
2023/07/20 00:26:28;;;;;;;13.52;5.03;;;20.50;99.90;;;;;;4994374;28;20372;-75
2023/07/20 00:28:54;;;;;;;13.70;4.25;;;20.50;99.90;;;;;;4994174;28;20168;-80
2023/07/20 00:31:19;;;;;;;7.05;3.50;;;20.60;99.90;;;;;;4994043;28;20033;-76
2023/07/20 00:33:45;;;;;;;13.13;4.45;;;20.50;99.90;;;;;;4994272;28;20535;-78
2023/07/20 00:36:11;;;;;;;13.20;4.90;;;20.50;99.90;;;;;;4993777;28;20034;-79
2023/07/20 00:38:37;;;;;;;9.85;4.22;;;20.50;99.90;;;;;;4976667;28;20060;-80
2023/07/20 00:41:03;;;;;;;14.00;4.97;;;20.60;99.90;;;;;;4994227;28;20026;-79
2023/07/20 00:43:29;;;;;;;15.27;5.68;;;20.50;99.90;;;;;;4992788;28;20466;-78
2023/07/20 00:45:55;;;;;;;10.32;4.28;;;20.60;99.90;;;;;;4992566;28;20126;-80
2023/07/20 00:48:22;;;;;;;12.32;4.75;;;20.60;99.90;;;;;;4991749;28;20093;-80
2023/07/20 00:50:48;;;;;;;11.73;5.18;;;20.40;99.90;;;;;;4993336;28;20034;-79
2023/07/20 00:53:14;;;;;;;12.52;5.95;;;20.40;99.90;;;;;;4992682;28;20053;-74
2023/07/20 00:55:40;;;;;;;10.82;4.65;;;20.30;99.90;;;;;;4992417;28;20030;-74
2023/07/20 00:58:07;;;;;;;15.13;5.65;;;20.40;99.90;;;;;;4977112;28;20081;-80
2023/07/20 01:00:34;;;;;;;14.05;5.45;;;20.50;99.90;;;;;;4992626;28;20046;-79
2023/07/20 01:03:00;;;;;;;17.05;5.63;;;20.30;99.90;;;;;;4993827;28;20030;-80
2023/07/20 01:05:38;;;;;;;17.77;7.50;;;20.30;99.90;;;;;;4995735;28;20475;-74
2023/07/20 01:08:17;;;;;;;17.15;6.88;;;20.30;99.90;;;;;;4989782;28;20030;-79
2023/07/20 01:10:54;;;;;;;22.95;8.15;;;20.30;99.90;;;;;;4976431;28;20479;-76
2023/07/20 01:13:21;;;;;;;18.40;8.25;;;20.20;99.90;;;;;;4974348;28;20526;-77
2023/07/20 01:15:53;;;;;;;18.00;6.93;;;20.20;99.90;;;;;;4990542;28;20049;-77
2023/07/20 01:18:19;;;;;;;18.55;7.63;;;20.30;99.90;;;;;;4991948;28;20047;-80
2023/07/20 01:20:45;;;;;;;15.40;6.70;;;20.20;99.90;;;;;;4991736;28;20662;-80
2023/07/20 01:23:35;;;;;;;13.07;6.18;;;20.10;99.90;;;;;;4991989;28;20022;-80
2023/07/20 01:26:35;;;;;;;13.77;6.55;;;20.10;99.90;;;;;;4990794;28;20026;-76
2023/07/20 01:29:22;;;;;;;18.58;7.03;;;20.10;99.90;;;;;;4974884;28;20081;-75
2023/07/20 01:31:52;;;;;;;21.15;8.15;;;20.10;99.90;;;;;;4991488;28;20399;-81
2023/07/20 01:34:19;;;;;;;15.60;6.88;;;19.90;99.90;;;;;;4986855;28;20034;-75
2023/07/20 01:36:48;;;;;;;18.60;7.38;;;19.90;99.90;;;;;;4990698;28;20069;-75
2023/07/20 01:39:14;;;;;;;19.00;7.82;;;19.80;99.90;;;;;;4991431;28;20038;-80
2023/07/20 01:41:40;;;;;;;15.60;7.55;;;19.80;99.90;;;;;;4991838;28;20082;-79
2023/07/20 01:44:06;;;;;;;17.05;7.35;;;19.80;99.90;;;;;;4977329;28;20050;-75
2023/07/20 01:46:32;;;;;;;18.08;7.47;;;19.90;99.90;;;;;;4990268;28;20121;-75
2023/07/20 01:48:58;;;;;;;18.48;7.18;;;19.80;99.90;;;;;;4989936;28;20057;-81
2023/07/20 01:51:24;;;;;;;22.42;7.20;;;19.80;99.90;;;;;;4991457;28;20033;-75
2023/07/20 01:53:50;;;;;;;14.38;7.32;;;19.80;99.90;;;;;;4991080;28;20038;-80
2023/07/20 01:56:16;;;;;;;15.27;6.32;;;19.60;99.90;;;;;;4974739;28;20042;-76
2023/07/20 01:58:42;;;;;;;15.90;6.68;;;19.60;99.90;;;;;;4989750;28;20480;-78
2023/07/20 02:01:08;;;;;;;17.25;6.88;;;19.70;99.90;;;;;;4989799;28;20077;-81
2023/07/20 02:03:34;;;;;;;16.75;6.50;;;19.70;99.90;;;;;;4989974;28;20511;-79
2023/07/20 02:05:59;;;;;;;16.92;6.38;;;19.80;99.90;;;;;;4989596;28;20495;-75
2023/07/20 02:08:25;;;;;;;18.98;6.07;;;19.80;99.90;;;;;;4990027;28;20499;-75
2023/07/20 02:10:52;;;;;;;13.45;6.47;;;19.80;99.90;;;;;;4990759;28;20018;-80
2023/07/20 02:13:18;;;;;;;15.00;6.50;;;19.70;99.90;;;;;;4989586;28;20140;-81
2023/07/20 02:15:44;;;;;;;18.25;6.45;;;19.80;99.90;;;;;;4989636;28;20034;-75
2023/07/20 02:18:10;;;;;;;19.80;5.80;;;19.60;99.90;;;;;;4991476;28;20072;-80
2023/07/20 02:20:36;;;;;;;18.23;6.72;;;19.60;99.90;;;;;;4989445;28;20234;-80
2023/07/20 02:23:02;;;;;;;14.85;6.50;;;19.70;99.90;;;;;;4991034;28;20383;-79
2023/07/20 02:25:28;;;;;;;12.98;6.70;;;19.70;99.90;;;;;;4990756;28;20018;-79
2023/07/20 02:27:53;;;;;;;15.40;7.10;;;19.80;99.90;;;;;;4990629;28;20117;-81
2023/07/20 02:30:19;;;;;;;14.98;6.05;;;19.60;99.90;;;;;;4974900;28;20038;-80
2023/07/20 02:32:48;;;;;;;14.07;6.40;;;19.60;99.90;;;;;;4990535;28;20451;-79
2023/07/20 02:35:14;;;;;;;18.20;7.90;;;19.70;99.90;;;;;;4989793;28;20109;-75
2023/07/20 02:37:40;;;;;;;16.30;6.43;;;19.70;99.90;;;;;;4989098;28;20082;-79
2023/07/20 02:40:07;;;;;;;18.17;7.85;;;19.70;99.90;;;;;;4990656;28;20046;-81
2023/07/20 02:42:33;;;;;;;15.13;7.35;;;19.60;99.90;;;;;;4978394;28;20097;-74
2023/07/20 02:44:59;;;;;;;16.23;7.28;;;19.60;99.90;;;;;;4989450;28;20511;-80
2023/07/20 02:47:25;;;;;;;14.25;7.00;;;19.60;99.90;;;;;;4992294;28;20451;-75
2023/07/20 02:49:51;;;;;;;15.23;7.50;;;19.50;99.90;;;;;;4994795;28;20044;-80
2023/07/20 02:52:16;;;;;;;15.98;7.43;;;19.40;99.90;;;;;;4992666;28;20026;-74
2023/07/20 02:54:42;;;;;;;19.05;9.23;;;19.40;99.90;;;;;;4977141;28;20054;-74
2023/07/20 02:57:08;;;;;;;19.27;8.60;;;19.50;99.90;;;;;;4979320;28;20034;-77
2023/07/20 02:59:34;;;;;;;19.45;8.50;;;19.50;99.90;;;;;;4994584;28;20022;-80
2023/07/20 03:02:00;;;;;;;16.83;8.60;;;19.50;99.90;;;;;;4994341;28;20051;-75
2023/07/20 03:04:27;;;;;;;13.50;7.10;;;19.60;99.90;;;;;;4994379;28;20061;-79
2023/07/20 03:06:53;;;;;;;18.55;8.93;;;19.60;99.90;;;;;;4994640;28;20046;-81
2023/07/20 03:09:19;;;;;;;15.82;8.02;;;19.60;99.90;;;;;;4992998;28;20030;-75
2023/07/20 03:11:45;;;;;;;16.40;9.23;;;19.70;99.90;;;;;;4977765;28;20050;-75
2023/07/20 03:14:12;;;;;;;13.93;8.30;;;19.70;99.90;;;;;;4992787;28;20021;-80
2023/07/20 03:16:38;;;;;;;14.05;8.13;;;19.80;99.90;;;;;;4994477;28;20491;-76
2023/07/20 03:19:04;;;;;;;14.60;7.55;;;19.80;99.90;;;;;;4994379;28;20109;-76
2023/07/20 03:21:30;;;;;;;17.90;8.35;;;19.80;99.90;;;;;;4992835;28;20033;-80
2023/07/20 03:23:58;;;;;;;14.70;8.80;;;19.80;99.90;;;;;;4994191;28;20023;-80
2023/07/20 03:26:24;;;;;;;14.25;9.07;;;19.90;99.90;;;;;;4992740;28;20022;-79
2023/07/20 03:28:50;;;;;;;18.77;9.35;;;19.90;99.90;;;;;;4992606;28;20027;-80
2023/07/20 03:31:16;;;;;;;12.77;8.50;;;19.90;99.90;;;;;;4976672;28;20088;-75
2023/07/20 03:33:42;;;;;;;14.98;8.27;;;19.90;99.90;;;;;;4992748;28;20042;-80
2023/07/20 03:36:09;;;;;;;21.60;9.63;;;19.90;99.90;;;;;;4976484;28;20028;-80
2023/07/20 03:38:35;;;;;;;14.65;8.65;;;20.00;99.90;;;;;;4978055;28;20046;-79
2023/07/20 03:41:01;;;;;;;16.95;8.38;;;20.00;99.90;;;;;;4992449;28;20032;-76
2023/07/20 03:43:28;;;;;;;27.80;9.63;;;20.00;99.90;;;;;;4993619;28;20039;-79
2023/07/20 03:45:54;;;;;;;15.65;8.57;;;20.00;99.90;;;;;;4993622;28;20026;-79
2023/07/20 03:48:24;;;;;;;18.98;9.18;;;20.00;99.90;;;;;;4991923;28;20125;-77
2023/07/20 03:50:52;;;;;;;15.07;7.97;;;20.10;99.90;;;;;;4993544;28;20078;-75
2023/07/20 03:53:18;;;;;;;18.27;8.65;;;20.10;99.90;;;;;;4993504;28;20452;-80
2023/07/20 03:55:49;;;;;;;14.82;7.03;;;20.10;99.90;;;;;;4992474;28;20035;-76
2023/07/20 03:58:16;;;;;;;17.90;8.40;;;20.10;99.90;;;;;;4992323;28;20029;-75
2023/07/20 04:00:46;;;;;;;12.95;7.75;;;20.20;99.90;;;;;;4978299;28;20033;-75
2023/07/20 04:03:12;;;;;;;14.55;7.63;;;20.10;99.90;;;;;;4994030;28;20026;-79
2023/07/20 04:05:39;;;;;;;18.77;7.47;;;20.10;99.90;;;;;;4991056;28;20030;-79
2023/07/20 04:08:05;;;;;;;13.60;8.15;;;20.10;99.90;;;;;;4998335;28;20018;-80
2023/07/20 04:10:30;;;;;;;15.23;7.65;;;20.10;99.90;;;;;;4998764;28;20049;-79
2023/07/20 04:12:56;;;;;;;14.48;8.10;;;20.10;99.90;;;;;;4999900;28;20261;-78
2023/07/20 04:15:22;;;;;;;17.27;6.70;;;20.20;99.90;;;;;;5000772;28;20101;-74
2023/07/20 04:17:48;;;;;;;14.77;8.02;;;20.10;99.90;;;;;;4998570;28;20064;-79
2023/07/20 04:20:14;;;;;;;15.27;7.68;;;20.10;99.90;;;;;;5000330;28;20046;-79
2023/07/20 04:22:40;;;;;;;17.55;8.48;;;20.10;99.90;;;;;;4998748;28;20127;-75
2023/07/20 04:25:09;;;;;;;11.07;6.72;;;20.10;99.90;;;;;;4997548;28;20034;-77
2023/07/20 04:27:36;;;;;;;11.63;7.43;;;20.10;99.90;;;;;;4981025;28;20037;-79
2023/07/20 04:30:03;;;;;;;15.77;8.98;;;20.10;99.90;;;;;;4997470;28;20026;-76
2023/07/20 04:32:30;;;;;;;12.50;7.10;;;20.10;99.90;;;;;;4981060;28;20065;-79
2023/07/20 04:34:56;;;;;;;13.85;7.40;;;20.10;99.90;;;;;;4998503;28;20177;-76
2023/07/20 04:37:22;;;;;;;13.50;7.50;;;20.10;99.90;;;;;;5002682;28;20050;-78
2023/07/20 04:39:48;;;;;;;14.02;6.75;;;20.20;99.90;;;;;;4998147;28;20022;-78
2023/07/20 04:42:16;;;;;;;14.32;6.88;;;20.20;99.90;;;;;;4982229;28;20066;-79
2023/07/20 04:44:42;;;;;;;13.02;6.93;;;20.20;99.90;;;;;;4999718;28;20035;-75
2023/07/20 04:47:09;;;;;;;12.68;7.18;;;20.20;99.90;;;;;;5002431;28;20054;-74
2023/07/20 04:49:37;;;;;;;11.73;6.70;;;20.20;99.90;;;;;;5015749;28;20015;-73
2023/07/20 04:52:03;;;;;;;11.65;6.30;;;20.30;99.90;;;;;;5003600;28;20727;-74
2023/07/20 04:54:30;;;;;;;11.95;6.00;;;20.40;99.90;;;;;;4982309;28;20066;-79
2023/07/20 04:56:56;;;;;;;12.60;6.03;;;20.50;99.90;;;;;;4998143;28;20041;-78
2023/07/20 04:59:23;;;;;;;11.85;6.13;;;20.60;99.90;;;;;;4996344;28;20072;-78
2023/07/20 05:01:49;;;;;;;9.45;6.03;;;20.80;99.90;;;;;;4997252;28;20073;-78
2023/07/20 05:04:16;;;;;;;16.88;6.68;;;20.80;99.90;;;;;;5013808;28;20027;-78
2023/07/20 05:06:43;;;;;;;13.23;6.28;;;21.00;99.90;;;;;;4997949;28;20372;-79
2023/07/20 05:09:09;;;;;;;11.18;5.70;;;20.90;99.90;;;;;;4995990;28;20034;-75
2023/07/20 05:11:35;;;;;;;13.02;5.95;;;20.90;99.90;;;;;;4993689;28;20030;-78
2023/07/20 05:14:01;;;;;;;11.02;6.40;;;21.00;99.90;;;;;;4993460;28;20033;-78
2023/07/20 05:16:28;;;;;;;11.82;6.00;;;21.10;99.90;;;;;;4995050;28;20113;-78
2023/07/20 05:18:57;;;;;;;11.90;6.53;;;21.20;99.90;;;;;;4998541;28;20060;-74
2023/07/20 05:21:23;;;;;;;12.20;6.82;;;21.20;99.90;;;;;;4999011;28;20091;-78
2023/07/20 05:23:49;;;;;;;11.73;6.82;;;21.30;99.90;;;;;;4994115;28;20062;-78
2023/07/20 05:26:15;;;;;;;9.95;6.22;;;21.40;99.90;;;;;;4994660;28;20048;-74
2023/07/20 05:28:41;;;;;;;10.95;6.10;;;21.50;99.90;;;;;;4997092;28;20105;-77
2023/07/20 05:31:07;;;;;;;13.88;6.93;;;21.60;99.90;;;;;;4995576;28;20380;-79
2023/07/20 05:33:33;;;;;;;10.68;6.43;;;21.70;99.90;;;;;;4995015;28;20096;-75
2023/07/20 05:35:59;;;;;;;11.27;5.70;;;21.70;99.90;;;;;;4994637;28;20374;-74
2023/07/20 05:38:25;;;;;;;14.95;5.43;;;21.80;99.90;;;;;;4995901;28;20033;-76
2023/07/20 05:40:50;;;;;;;11.93;5.82;;;21.80;99.90;;;;;;4993393;28;20105;-77
2023/07/20 05:43:16;;;;;;;12.40;6.07;;;21.80;99.90;;;;;;4993735;28;20057;-77
2023/07/20 05:45:43;;;;;;;11.70;5.68;;;21.90;99.90;;;;;;4995597;28;20036;-79
2023/07/20 05:48:12;;;;;;;11.18;5.93;;;22.00;99.90;;;;;;4976009;28;20471;-79
2023/07/20 05:50:42;;;;;;;14.25;5.82;;;22.20;99.90;;;;;;4991889;28;20022;-74
2023/07/20 05:53:08;;;;;;;13.90;6.25;;;22.30;99.90;;;;;;4992515;28;20062;-79
2023/07/20 05:55:34;;;;;;;10.32;5.57;;;22.40;99.90;;;;;;4992898;28;20134;-75
2023/07/20 05:57:59;;;;;;;9.13;4.95;;;22.30;99.90;;;;;;4990812;28;20037;-79
2023/07/20 06:00:26;;;;;;;15.18;5.88;;;22.40;99.90;;;;;;4992814;28;20101;-75
2023/07/20 06:02:54;;;;;;;9.13;5.68;;;22.40;99.90;;;;;;4992403;28;20046;-78
2023/07/20 06:05:22;;;;;;;10.07;5.72;;;22.50;99.90;;;;;;4992382;28;20432;-77
2023/07/20 06:07:47;;;;;;;14.18;6.82;;;22.60;99.90;;;;;;4992648;28;20084;-78
2023/07/20 06:10:13;;;;;;;13.70;6.43;;;22.60;99.90;;;;;;4992218;28;20034;-75
2023/07/20 06:12:39;;;;;;;9.98;5.93;;;22.60;99.90;;;;;;4992761;28;20084;-78
2023/07/20 06:15:06;;;;;;;12.32;6.53;;;22.80;99.90;;;;;;4991090;28;20019;-75
2023/07/20 06:17:32;;;;;;;13.75;6.10;;;22.80;99.90;;;;;;4992165;28;20113;-77
2023/07/20 06:19:58;;;;;;;11.90;5.20;;;22.80;99.90;;;;;;4991427;28;20114;-78
2023/07/20 06:22:24;;;;;;;8.63;4.85;;;22.80;99.90;;;;;;4991589;28;20109;-78
2023/07/20 06:24:50;;;;;;;10.35;5.72;;;22.90;99.90;;;;;;4991553;28;20080;-77
2023/07/20 06:27:16;;;;;;;11.55;5.53;;;22.90;99.90;;;;;;4974772;28;20137;-72
2023/07/20 06:29:42;;;;;;;12.20;6.35;;;23.00;99.90;;;;;;4992292;28;20101;-74
2023/07/20 06:32:08;;;;;;;11.05;6.03;;;23.10;99.90;;;;;;4992174;28;20045;-73
2023/07/20 06:34:36;;;;;;;9.55;6.03;;;23.20;99.90;;;;;;4992396;28;20033;-74
2023/07/20 06:37:04;;;;;;;13.45;5.57;;;23.30;99.90;;;;;;4992391;28;20431;-76
2023/07/20 06:39:30;;;;;;;11.18;6.80;;;23.20;99.90;;;;;;4992176;28;20057;-77
2023/07/20 06:41:56;;;;;;;10.60;5.82;;;23.20;99.90;;;;;;4991879;28;20027;-74
2023/07/20 06:44:22;;;;;;;10.98;5.90;;;23.20;99.90;;;;;;4987595;28;20046;-77
2023/07/20 06:46:48;;;;;;;14.95;6.13;;;23.30;99.90;;;;;;4991967;28;20019;-73
2023/07/20 06:49:27;;;;;;;13.27;6.20;;;23.30;99.90;;;;;;4992337;28;20037;-77
2023/07/20 06:51:53;;;;;;;9.60;5.15;;;23.20;99.90;;;;;;4991978;28;20034;-73
2023/07/20 06:54:19;;;;;;;11.80;6.43;;;23.20;99.90;;;;;;4991775;28;20033;-77
2023/07/20 06:56:45;;;;;;;12.13;6.30;;;23.30;99.90;;;;;;4971275;28;20495;-77
2023/07/20 06:59:11;;;;;;;9.55;5.70;;;23.40;99.90;;;;;;4987449;28;20105;-74
2023/07/20 07:01:37;;;;;;;12.35;6.25;;;23.50;99.90;;;;;;4991707;28;20033;-73
2023/07/20 07:04:03;;;;;;;14.00;6.80;;;23.50;99.90;;;;;;4991995;28;20034;-78
2023/07/20 07:06:29;;;;;;;11.82;6.65;;;23.50;99.90;;;;;;4991561;28;20452;-77
2023/07/20 07:08:55;;;;;;;12.65;5.90;;;23.60;99.90;;;;;;4970906;28;20038;-77
2023/07/20 07:11:24;;;;;;;12.13;6.20;;;23.70;99.90;;;;;;4988146;28;20033;-75
2023/07/20 07:13:51;;;;;;;10.68;5.97;;;23.80;99.90;;;;;;4991996;28;20042;-77
2023/07/20 07:16:19;;;;;;;12.20;5.90;;;23.80;99.90;;;;;;4991422;28;20468;-76
2023/07/20 07:18:50;;;;;;;12.35;6.63;;;24.00;99.90;;;;;;4991997;28;20034;-76
2023/07/20 07:21:16;;;;;;;11.43;6.50;;;24.20;99.90;;;;;;4995080;28;20049;-77
2023/07/20 07:23:42;;;;;;;11.93;7.03;;;24.30;99.90;;;;;;4991928;28;20480;-74
2023/07/20 07:26:09;;;;;;;14.23;6.55;;;24.20;99.90;;;;;;4991288;28;20053;-77
2023/07/20 07:28:36;;;;;;;10.88;6.07;;;24.60;99.90;;;;;;4991847;28;20558;-74
2023/07/20 07:31:05;;;;;;;11.27;6.60;;;25.30;99.90;;;;;;4991497;28;20065;-78
2023/07/20 07:33:32;;;;;;;13.65;6.82;;;25.60;99.90;;;;;;4993515;28;20043;-78
2023/07/20 07:35:58;;;;;;;12.18;6.90;;;;;;;;;;4995633;28;20055;-77
2023/07/20 07:38:24;;;;;;;19.80;7.55;;;25.90;99.90;;;;;;4995247;28;20062;-78
2023/07/20 07:40:50;;;;;;;11.75;6.55;;;26.50;99.90;;;;;;4995246;28;20492;-78
2023/07/20 07:43:15;;;;;;;13.48;6.85;;;26.80;99.90;;;;;;4994907;28;20119;-73
2023/07/20 07:45:41;;;;;;;10.05;5.70;;;27.00;99.90;;;;;;4994885;28;20088;-73
2023/07/20 07:48:08;;;;;;;9.43;5.90;;;27.20;99.90;;;;;;4995008;28;20034;-76
2023/07/20 07:50:34;;;;;;;11.63;6.45;;;27.50;99.90;;;;;;4995195;28;20483;-76
2023/07/20 07:53:00;;;;;;;13.23;6.72;;;27.30;99.90;;;;;;4994761;28;20038;-76
2023/07/20 07:55:26;;;;;;;11.55;5.90;;;27.50;99.90;;;;;;4993579;28;20082;-76
2023/07/20 07:57:52;;;;;;;10.57;6.00;;;27.70;99.90;;;;;;4995197;28;20412;-76
2023/07/20 08:00:19;;;;;;;10.05;5.70;;;27.70;99.90;;;;;;4994633;28;20010;-74
2023/07/20 08:02:46;;;;;;;14.90;5.30;;;28.00;99.90;;;;;;4995166;28;20057;-73
2023/07/20 08:05:12;;;;;;;8.27;5.05;;;27.80;99.90;;;;;;4993288;28;20030;-76
2023/07/20 08:07:38;;;;;;;12.10;5.13;;;27.70;99.90;;;;;;4994983;28;20114;-76
2023/07/20 08:10:05;;;;;;;11.82;5.55;;;27.90;99.90;;;;;;4994299;28;20394;-76
2023/07/20 08:12:31;;;;;;;11.43;5.72;;;28.10;99.90;;;;;;4994480;28;20053;-73
2023/07/20 08:14:57;;;;;;;15.40;5.90;;;28.80;99.90;;;;;;4994657;28;20046;-75
2023/07/20 08:17:23;;;;;;;10.23;5.63;;;28.50;99.90;;;;;;4994824;28;20392;-77
2023/07/20 08:19:49;;;;;;;11.50;5.38;;;28.60;99.90;;;;;;4992394;28;20041;-77
2023/07/20 08:22:15;;;;;;;8.70;5.45;;;28.60;99.90;;;;;;4994289;28;20048;-76
2023/07/20 08:24:42;;;;;;;9.05;5.05;;;28.60;99.90;;;;;;4994425;28;20547;-75
2023/07/20 08:27:09;;;;;;;10.65;5.32;;;;;;;;;;4994253;28;20030;-78
2023/07/20 08:29:38;;;;;;;11.50;4.47;;;28.90;99.90;;;;;;4993485;28;20353;-78
2023/07/20 08:32:04;;;;;;;6.13;4.10;;;28.70;99.90;;;;;;4993616;28;20046;-77
2023/07/20 08:34:31;;;;;;;6.90;4.10;;;28.80;99.90;;;;;;4994362;28;20022;-72
2023/07/20 08:36:58;;;;;;;8.50;4.38;;;28.80;99.90;;;;;;4993983;28;20042;-77
2023/07/20 08:39:24;;;;;;;8.10;4.15;;;28.70;99.90;;;;;;4993370;28;20027;-78
2023/07/20 08:41:51;;;;;;;9.70;4.35;;;28.70;99.90;;;;;;4993959;28;20030;-74
2023/07/20 08:44:17;;;;;;;6.38;3.83;;;29.20;99.90;;;;;;4992995;28;20566;-73
2023/07/20 08:46:44;;;;;;;9.00;3.47;;;29.20;99.90;;;;;;4993581;28;20038;-78
2023/07/20 08:49:11;;;;;;;5.95;3.47;;;28.70;99.90;;;;;;4993537;28;20034;-74
2023/07/20 08:51:39;;;;;;;7.95;3.70;;;29.00;99.90;;;;;;4993458;28;20065;-73
2023/07/20 08:54:06;;;;;;;7.80;3.80;;;29.10;99.30;;;;;;4993735;28;20034;-77
2023/07/20 08:56:34;;;;;;;9.75;3.70;;;29.20;98.90;;;;;;4994041;28;20050;-78
2023/07/20 08:59:00;;;;;;;5.28;3.30;;;28.90;97.80;;;;;;4992869;28;20542;-77
2023/07/20 09:01:28;;;;;;;7.72;3.53;;;29.40;99.30;;;;;;4993882;28;20117;-76
2023/07/20 09:03:54;;;;;;;7.32;3.70;;;29.30;99.00;;;;;;4992596;28;21271;-74
2023/07/20 09:06:19;;;;;;;7.55;3.45;;;29.40;99.90;;;;;;4993197;28;20034;-77
2023/07/20 09:08:45;;;;;;;9.77;4.38;;;29.40;99.10;;;;;;4993656;28;20173;-78
2023/07/20 09:11:13;;;;;;;8.65;3.45;;;29.20;98.10;;;;;;4993303;28;20022;-77
2023/07/20 09:13:39;;;;;;;5.53;2.90;;;29.30;99.80;;;;;;4993868;28;20495;-74
2023/07/20 09:16:04;;;;;;;7.47;3.50;;;29.10;98.30;;;;;;4991803;28;20077;-77
2023/07/20 09:18:34;;;;;;;6.72;3.42;;;29.10;96.90;;;;;;4991930;28;20038;-78
2023/07/20 09:21:05;;;;;;;8.05;3.97;;;29.20;98.60;;;;;;4992851;28;20030;-78
2023/07/20 09:23:41;;;;;;;11.85;3.90;;;29.10;99.20;;;;;;4992739;28;20472;-77
2023/07/20 09:26:12;;;;;;;9.00;3.92;;;29.10;99.90;;;;;;4994384;28;20100;-77
2023/07/20 09:28:54;;;;;;;6.82;3.75;;;29.20;99.50;;;;;;4993016;28;20036;-74
2023/07/20 09:31:21;;;;;;;5.43;3.47;;;29.00;99.70;;;;;;4980037;28;20037;-75
2023/07/20 09:33:49;;;;;;;8.88;3.85;;;28.90;99.90;;;;;;4992433;28;20458;-76
2023/07/20 09:36:15;;;;;;;5.50;3.75;;;29.10;99.10;;;;;;4992926;28;20061;-77
2023/07/20 09:38:45;;;;;;;7.28;3.83;;;29.20;98.70;;;;;;4993385;28;20459;-78
2023/07/20 09:41:18;;;;;;;5.90;3.10;;;29.20;99.30;;;;;;4980209;28;20023;-77
2023/07/20 09:43:45;;;;;;;5.72;2.92;;;28.90;98.20;;;;;;4984308;28;20100;-76
2023/07/20 09:46:11;;;;;;;6.38;3.53;;;29.10;97.20;;;;;;4991777;28;20519;-73
2023/07/20 09:48:37;;;;;;;6.47;2.80;;;29.00;99.80;;;;;;4992885;28;20114;-76
2023/07/20 09:51:06;;;;;;;4.65;2.90;;;28.90;98.20;;;;;;4992601;28;20476;-76
2023/07/20 09:53:34;;;;;;;5.55;2.88;;;28.90;99.00;;;;;;4992130;28;20022;-73
2023/07/20 09:56:00;;;;;;;4.25;2.63;;;29.00;97.00;;;;;;4991841;28;20538;-75
2023/07/20 09:58:27;;;;;;;5.40;2.90;;;29.00;97.00;;;;;;4991032;28;20407;-75
2023/07/20 10:00:57;;;;;;;7.00;2.80;;;29.10;97.20;;;;;;4993121;28;20464;-75
2023/07/20 10:03:28;;;;;;;4.43;2.58;;;29.00;98.20;;;;;;4992219;28;20085;-75
2023/07/20 10:05:58;;;;;;;5.32;2.63;;;29.10;97.40;;;;;;4990937;28;20022;-75
2023/07/20 10:08:25;;;;;;;5.80;3.38;;;29.10;98.70;;;;;;5003565;28;20480;-77
2023/07/20 10:10:51;;;;;;;4.95;2.85;;;29.20;98.30;;;;;;4991489;28;20034;-73
2023/07/20 10:13:27;;;;;;;4.15;2.47;;;29.20;97.30;;;;;;4992467;28;20054;-77
2023/07/20 10:16:07;;;;;;;5.07;3.00;;;29.00;98.00;;;;;;4991397;28;20518;-72
2023/07/20 10:19:02;;;;;;;6.60;3.20;;;29.20;99.90;;;;;;4987440;28;20126;-73
2023/07/20 10:21:29;;;;;;;7.32;2.83;;;29.10;99.90;;;;;;4970021;28;20030;-72
2023/07/20 10:23:57;;;;;;;6.00;2.65;;;28.80;99.60;;;;;;4970464;28;20023;-73
2023/07/20 10:26:23;;;;;;;5.43;2.92;;;28.80;99.90;;;;;;4970731;28;20038;-73
2023/07/20 10:28:49;;;;;;;4.95;2.60;;;28.90;99.90;;;;;;4970377;28;20026;-74
2023/07/20 10:31:16;;;;;;;5.55;2.70;;;29.10;99.20;;;;;;4964924;28;20047;-73
2023/07/20 10:33:42;;;;;;;4.57;2.60;;;29.10;99.60;;;;;;4970514;28;20061;-76
2023/07/20 10:36:08;;;;;;;6.05;2.65;;;29.20;99.90;;;;;;4961387;28;20110;-76
2023/07/20 10:38:40;;;;;;;7.93;2.92;;;29.30;99.30;;;;;;4969443;28;20190;-75
2023/07/20 10:41:26;;;;;;;4.40;2.20;;;29.30;99.00;;;;;;4964444;28;20829;-73
2023/07/20 10:44:00;;;;;;;6.00;3.13;;;29.20;97.40;;;;;;4963203;28;20055;-72
2023/07/20 10:46:43;;;;;;;3.25;2.08;;;29.30;98.50;;;;;;4970717;28;20118;-73
2023/07/20 10:49:10;;;;;;;7.63;2.60;;;29.30;97.70;;;;;;4970495;28;20056;-74
2023/07/20 10:51:49;;;;;;;5.75;2.58;;;29.50;97.80;;;;;;4970055;28;20046;-74
2023/07/20 10:54:17;;;;;;;5.47;2.05;;;29.50;97.90;;;;;;4963582;28;20815;-74
2023/07/20 10:56:52;;;;;;;3.25;2.22;;;29.30;97.80;;;;;;4954182;28;20109;-72
2023/07/20 10:59:35;;;;;;;2.97;1.90;;;29.40;98.30;;;;;;4991958;28;20048;-74
2023/07/20 11:02:06;;;;;;;4.25;2.35;;;29.30;96.40;;;;;;4991003;28;20475;-75
2023/07/20 11:04:43;;;;;;;10.63;2.73;;;29.20;97.20;;;;;;4991466;28;20516;-75
2023/07/20 11:07:09;;;;;;;4.85;2.33;;;29.20;97.30;;;;;;4991862;28;20037;-75
2023/07/20 11:09:36;;;;;;;2.28;1.98;;;29.20;97.60;;;;;;4995314;28;20531;-72
2023/07/20 11:12:13;;;;;;;3.88;2.45;;;29.20;97.50;;;;;;4996031;28;20050;-73
2023/07/20 11:14:58;;;;;;;4.13;2.00;;;29.30;96.80;;;;;;4994501;28;20026;-72
2023/07/20 11:17:31;;;;;;;5.50;2.38;;;29.20;95.60;;;;;;4994461;28;20028;-74
2023/07/20 11:20:00;;;;;;;4.28;2.13;;;29.30;95.70;;;;;;4994310;28;20114;-72
2023/07/20 11:22:26;;;;;;;3.55;1.85;;;29.30;96.10;;;;;;4995169;28;20446;-73
2023/07/20 11:24:56;;;;;;;4.00;2.30;;;29.20;95.80;;;;;;4995363;28;20472;-73
2023/07/20 11:27:25;;;;;;;5.47;2.67;;;29.00;97.00;;;;;;4995216;28;20026;-73
2023/07/20 11:29:51;;;;;;;4.05;2.05;;;29.20;97.00;;;;;;4995023;28;20088;-73
2023/07/20 11:32:24;;;;;;;3.75;2.45;;;29.20;96.60;;;;;;4995556;28;20038;-73
2023/07/20 11:34:50;;;;;;;5.38;2.55;;;29.20;96.90;;;;;;4995348;28;20088;-73
2023/07/20 11:37:19;;;;;;;6.22;2.50;;;29.40;97.10;;;;;;4995462;28;20069;-72
2023/07/20 11:39:45;;;;;;;4.80;2.38;;;29.30;95.90;;;;;;4995257;28;20035;-74
2023/07/20 11:42:12;;;;;;;5.95;2.53;;;29.50;96.10;;;;;;5000553;28;20192;-74
2023/07/20 11:44:38;;;;;;;7.60;2.50;;;29.50;96.40;;;;;;4996432;28;20030;-72
2023/07/20 11:47:08;;;;;;;6.18;2.40;;;29.50;95.70;;;;;;4977800;28;20128;-74
2023/07/20 11:49:36;;;;;;;4.07;2.38;;;29.30;92.90;;;;;;4990326;28;20045;-75
2023/07/20 11:52:04;;;;;;;4.78;2.72;;;29.20;98.30;;;;;;4994337;28;20022;-75
2023/07/20 11:54:31;;;;;;;4.60;2.38;;;29.30;96.30;;;;;;4995165;28;20034;-73
2023/07/20 11:57:00;;;;;;;4.47;2.35;;;29.50;97.00;;;;;;4994745;28;20048;-74
2023/07/20 11:59:26;;;;;;;6.57;3.08;;;29.40;93.60;;;;;;5002482;28;20021;-72
2023/07/20 12:01:52;;;;;;;6.38;3.25;;;29.50;94.80;;;;;;4993857;28;20480;-72
2023/07/20 12:04:19;;;;;;;3.28;2.25;;;29.40;93.70;;;;;;4994152;28;20045;-72
2023/07/20 12:06:46;;;;;;;5.40;2.60;;;29.50;94.90;;;;;;4994985;28;20113;-73
2023/07/20 12:09:16;;;;;;;6.28;3.25;;;29.60;94.90;;;;;;4994523;28;20085;-74
2023/07/20 12:11:45;;;;;;;4.78;2.97;;;29.60;90.80;;;;;;4993803;28;20042;-74
2023/07/20 12:14:11;;;;;;;7.30;2.95;;;29.60;90.90;;;;;;4993953;28;20361;-75
2023/07/20 12:16:38;;;;;;;11.52;3.10;;;29.60;87.70;;;;;;4994826;28;20026;-74
2023/07/20 12:19:06;;;;;;;8.82;3.28;;;29.80;88.80;;;;;;4993129;28;20081;-72
2023/07/20 12:21:34;;;;;;;6.68;2.40;;;29.80;87.70;;;;;;4988145;28;20357;-75
2023/07/20 12:24:00;;;;;;;4.50;2.60;;;29.70;84.90;;;;;;4993927;28;20034;-74
2023/07/20 12:26:28;;;;;;;6.30;2.60;;;29.80;86.60;;;;;;4994325;28;20034;-74
2023/07/20 12:28:54;;;;;;;5.95;2.72;;;29.70;85.20;;;;;;4993794;28;20022;-75
2023/07/20 12:31:22;;;;;;;4.05;2.80;;;29.70;87.60;;;;;;4993479;28;20443;-74
2023/07/20 12:33:49;;;;;;;5.38;2.50;;;29.80;86.80;;;;;;5006779;28;20430;-73
2023/07/20 12:36:15;;;;;;;6.63;3.47;;;29.80;87.60;;;;;;4994279;28;20121;-75
2023/07/20 12:38:41;;;;;;;7.38;3.10;;;29.80;86.90;;;;;;4992884;28;20029;-72
2023/07/20 12:41:09;;;;;;;8.80;3.28;;;29.80;87.70;;;;;;4992204;28;20038;-74
2023/07/20 12:43:35;;;;;;;6.18;3.25;;;29.90;83.90;;;;;;4992822;28;20126;-72